deformed-offering

Nearby METAR Reports

 

KNUQ - Moffett Nas/Mtn, California, USA
Distance from station: N 9mi, 14km
Updated: Sun, 23-Sep-2018 4:56pm PDT
Clear
Clear
 Wind from NNW
Wind: NNW 13 mph , 20 km/h
Temperature: 72°F , 22°C
Dew Point: 52°F , 11°C
Humidity: 50%
Barometer: 29.85 inHg , 1010.8 hPa
Clouds: Clear
Visibility: 10 miles , 16 km
2018/09/23 23:56 KNUQ 232356Z 34011KT 10SM CLR 22/11 A2985 RMK AO2 SLP111 T02170111 10244 20200 56011 $
KSJC - San Jose, California, USA
Distance from station: NE 9mi, 14km
Updated: Sun, 23-Sep-2018 4:53pm PDT
Few Clouds
Few Clouds
 Wind from NNW
Wind: NNW 15 mph , 24 km/h
Temperature: 75°F , 24°C
Dew Point: 48°F , 9°C
Humidity: 39%
Barometer: 29.85 inHg , 1010.8 hPa
Clouds: Few Clouds
Visibility: 10 miles , 16 km
Cloud details: Few Clouds 500 ft
Few Clouds 8000 ft
2018/09/23 23:53 KSJC 232353Z 33013KT 10SM FEW005 FEW080 24/09 A2985 RMK AO2 SLP106 FU FEW005 T02440094 10272 20211 56009 $
 
KRHV - San Jose/Reid, California, USA
Distance from station: ENE 12mi, 19km
Updated: Sun, 23-Sep-2018 4:47pm PDT
Partly Cloudy
Partly Cloudy
 Wind from NNW
Wind: NNW 10 mph , 17 km/h
Temperature: 81°F , 27°C
Dew Point: 52°F , 11°C
Humidity: 37%
Barometer: 29.82 inHg , 1009.8 hPa
Clouds: Partly Cloudy
Visibility: 10 miles , 16 km
Cloud details: Partly Cloudy 11000 ft
2018/09/23 23:47 KRHV 232347Z 33009KT 10SM SCT110 27/11 A2982
KPAO - Palo Alto, California, USA
Distance from station: NNW 14mi, 23km
Updated: Sun, 23-Sep-2018 4:47pm PDT
Few Clouds
Few Clouds
 Wind from NNW
Wind: NNW 20 mph , 31 km/h
Barometer: 29.86 inHg , 1011.2 hPa
Clouds: Few Clouds
Visibility: 10 miles , 16 km
Cloud details: Few Clouds 12000 ft
2018/09/23 23:47 KPAO 232347Z 34017KT 10SM FEW120 A2986
 
KSQL - San Carlos Airpo, California, USA
Distance from station: NW 21mi, 34km
Updated: Sun, 23-Sep-2018 4:47pm PDT
Few Clouds
Few Clouds
 Wind from W
Wind: W 10 mph , 17 km/h
Temperature: 75°F , 24°C
Dew Point: 45°F , 7°C
Humidity: 34%
Barometer: 29.85 inHg , 1010.8 hPa
Clouds: Few Clouds
Visibility: 10 miles , 16 km
Cloud details: Few Clouds 18000 ft
2018/09/23 23:47 KSQL 232347Z 27009KT 10SM FEW180 24/07 A2985
KE16 - San Martin, California, USA
Distance from station: ESE 27mi, 43km
Updated: Sun, 23-Sep-2018 11:15am PDT
NOT Current
Clear
Clear
 Wind from calm
Wind: Calm
Temperature: 70°F , 21°C
Dew Point: 46°F , 8°C
Humidity: 43%
Barometer: 29.94 inHg , 1013.9 hPa
Clouds: Clear
Visibility: 10 miles , 16 km
2018/09/23 18:15 KE16 231815Z AUTO 00000KT 10SM CLR 21/08 A2994 RMK AO2
 
KWVI - Watsonville, California, USA
Distance from station: SSE 27mi, 44km
Updated: Sun, 23-Sep-2018 4:53pm PDT
Clear
Clear
 Wind from S
Wind: S 9 mph , 15 km/h
Temperature: 63°F , 17°C
Dew Point: 54°F , 12°C
Humidity: 73%
Barometer: 29.87 inHg , 1011.5 hPa
Clouds: Clear
Visibility: 10 miles , 16 km
2018/09/23 23:53 KWVI 232353Z AUTO 17008KT 10SM CLR 17/12 A2987 RMK AO2 SLP115 T01720122 10211 20156 56011 $
KHWD - Hayward, California, USA
Distance from station: N 28mi, 44km
Updated: Sun, 23-Sep-2018 4:54pm PDT
Clear
Clear
 Wind from WNW
Wind: WNW 9 mph , 15 km/h
Temperature: 70°F , 21°C
Dew Point: 52°F , 11°C
Humidity: 53%
Barometer: 29.86 inHg , 1011.2 hPa
Clouds: Clear
Visibility: 10 miles , 16 km
2018/09/23 23:54 KHWD 232354Z 30008KT 10SM CLR 21/11 A2986 RMK AO2 SLP118 T02060111 10244 20194 56011
 
KSFO - San Francisco, California, USA
Distance from station: NW 30mi, 49km
Updated: Sun, 23-Sep-2018 4:56pm PDT
Few Clouds
Few Clouds
 Wind from WNW
Wind: WNW 17 mph , 28 km/h
Temperature: 64°F , 18°C
Dew Point: 50°F , 10°C
Humidity: 60%
Barometer: 29.86 inHg , 1011.2 hPa
Clouds: Few Clouds
Visibility: 10 miles , 16 km
Cloud details: Few Clouds 800 ft
Few Clouds 20000 ft
2018/09/23 23:56 KSFO 232356Z 30015KT 10SM FEW008 FEW200 18/10 A2986 RMK AO2 SLP110 T01830100 10206 20178 56011 $
KHAF - Half Moon Bay, California, USA
Distance from station: WNW 31mi, 50km
Updated: Sun, 23-Sep-2018 5:35pm PDT
Haze, Clear
Haze, Clear
 Wind from WNW
Wind: WNW 6 mph , 9 km/h
Temperature: 57°F , 14°C
Dew Point: 54°F , 12°C
Humidity: 88%
Barometer: 29.90 inHg , 1012.5 hPa
Summary: Haze
Clouds: Clear
Visibility: 5 miles , 8 km
2018/09/24 00:35 KHAF 240035Z AUTO 30005KT 5SM HZ CLR 14/12 A2990 RMK AO2
 
KOAK - Oakland, California, USA
Distance from station: NNW 31mi, 50km
Updated: Sun, 23-Sep-2018 4:53pm PDT
Few Clouds
Few Clouds
 Wind from W
Wind: W 12 mph , 19 km/h
Temperature: 66°F , 19°C
Dew Point: 54°F , 12°C
Humidity: 64%
Barometer: 29.87 inHg , 1011.5 hPa
Clouds: Few Clouds
Visibility: 10 miles , 16 km
Cloud details: Few Clouds 1100 ft
Few Clouds 20000 ft
2018/09/23 23:53 KOAK 232353Z 27010KT 10SM FEW011 FEW200 19/12 A2987 RMK AO2 SLP114 T01890117 10211 20172 56013 $
KLVK - Livermore, California, USA
Distance from station: NNE 31mi, 51km
Updated: Sun, 23-Sep-2018 4:53pm PDT
Clear
Clear
 Wind from W
Wind: W 16 mph , 26 km/h
Temperature: 82°F , 28°C
Dew Point: 25°F , -4°C
Humidity: 12%
Barometer: 29.82 inHg , 1009.8 hPa
Clouds: Clear
Visibility: 10 miles , 16 km
2018/09/23 23:53 KLVK 232353Z 28014KT 10SM CLR 28/M04 A2982 RMK AO2 SLP095 T02781039 10300 20233 56011
 
KCVH - Hollister Muni, California, USA
Distance from station: SE 42mi, 68km
Updated: Sun, 23-Sep-2018 5:15pm PDT
Clear
Clear
 Wind from WSW
Wind: WSW 18 mph , 30 km/h
Temperature: 75°F , 24°C
Dew Point: 48°F , 9°C
Humidity: 39%
Barometer: 29.82 inHg , 1009.8 hPa
Clouds: Clear
Visibility: 10 miles , 16 km
2018/09/24 00:15 KCVH 240015Z AUTO 24016KT 10SM CLR 24/09 A2982 RMK A01
KSNS - Salinas, California, USA
Distance from station: SSE 48mi, 77km
Updated: Sun, 23-Sep-2018 4:53pm PDT
Clear
Clear
 Wind from NW
Wind: NW 12 mph , 19 km/h
Temperature: 64°F , 18°C
Dew Point: 54°F , 12°C
Humidity: 68%
Barometer: 29.88 inHg , 1011.9 hPa
Clouds: Clear
Visibility: 7 miles , 11 km
2018/09/23 23:53 KSNS 232353Z 32010KT 7SM CLR 18/12 A2988 RMK AO2 SLP125 T01830117 10206 20156 56008
 
KMRY - Monterey, California, USA
Distance from station: SSE 49mi, 78km
Updated: Sun, 23-Sep-2018 4:54pm PDT
Clear
Clear
 Wind from W
Wind: W 8 mph , 13 km/h
Temperature: 64°F , 18°C
Dew Point: 52°F , 11°C
Humidity: 64%
Barometer: 29.90 inHg , 1012.5 hPa
Clouds: Clear
Visibility: 10 miles , 16 km
2018/09/23 23:54 KMRY 232354Z 28007KT 10SM CLR 18/11 A2990 RMK AO2 SLP135 T01780111 10194 20133 56011 $
KCCR - Concord, California, USA
Distance from station: N 50mi, 81km
Updated: Sun, 23-Sep-2018 4:53pm PDT
Clear
Clear
 Wind from W
Wind: W 12 mph , 19 km/h
Temperature: 86°F , 30°C
Dew Point: 45°F , 7°C
Humidity: 24%
Barometer: 29.81 inHg , 1009.5 hPa
Clouds: Clear
Visibility: 10 miles , 16 km
2018/09/23 23:53 KCCR 232353Z 28010KT 10SM CLR 30/07 A2981 RMK AO2 SLP081 T03000067 10311 20244 56015
deformed-offering